TimeEDT,TemperatureF,Dew PointF,Humidity,Sea Level PressureIn,VisibilityMPH,Wind Direction,Wind SpeedMPH,Gust SpeedMPH,PrecipitationIn,Events,Conditions,WindDirDegrees,DateUTC
12:32 AM,44.6,42.8,93,30.04,4.0,East,5.8,-,0.08,Rain,Heavy Rain,100,2012-10-06 04:32:00
12:45 AM,44.6,42.8,93,30.05,6.0,North,4.6,-,0.11,Rain,Rain,360,2012-10-06 04:45:00
12:53 AM,44.1,42.1,93,30.07,5.0,NW,9.2,-,0.15,Rain,Heavy Rain,310,2012-10-06 04:53:00
1:14 AM,44.6,41.0,87,30.09,3.0,WNW,8.1,-,0.15,Rain,Heavy Rain,300,2012-10-06 05:14:00
1:22 AM,42.8,41.0,93,30.07,2.5,North,9.2,-,0.21,Rain,Heavy Rain,350,2012-10-06 05:22:00
1:32 AM,42.8,41.0,93,30.05,3.0,North,6.9,-,0.27,Rain,Heavy Rain,360,2012-10-06 05:32:00
1:53 AM,43.0,39.9,89,30.07,10.0,NW,8.1,-,0.29,Rain,Light Rain,320,2012-10-06 05:53:00
1:58 AM,42.8,41.0,93,30.07,10.0,NW,4.6,-,0.00,Rain,Light Rain,320,2012-10-06 05:58:00
2:13 AM,44.6,41.0,87,30.08,10.0,WNW,6.9,-,0.00,,Overcast,300,2012-10-06 06:13:00
2:21 AM,42.8,39.2,87,30.08,10.0,NW,6.9,-,0.00,,Overcast,310,2012-10-06 06:21:00
2:53 AM,44.1,41.0,89,30.09,10.0,WNW,4.6,-,0.00,,Overcast,290,2012-10-06 06:53:00
3:38 AM,44.6,41.0,87,30.09,10.0,NW,6.9,-,N/A,,Overcast,310,2012-10-06 07:38:00
3:53 AM,44.1,39.9,85,30.09,10.0,WNW,9.2,-,N/A,,Overcast,300,2012-10-06 07:53:00
4:53 AM,43.0,39.0,86,30.09,10.0,West,3.5,-,N/A,,Mostly Cloudy,280,2012-10-06 08:53:00
5:53 AM,41.0,37.9,89,30.10,10.0,West,5.8,-,N/A,,Clear,280,2012-10-06 09:53:00
6:53 AM,39.0,37.0,93,30.12,10.0,West,4.6,-,N/A,,Clear,260,2012-10-06 10:53:00
7:53 AM,37.9,36.0,93,30.14,10.0,Calm,Calm,-,N/A,,Clear,0,2012-10-06 11:53:00
8:53 AM,41.0,37.0,86,30.16,10.0,Variable,4.6,-,N/A,,Clear,0,2012-10-06 12:53:00
10:53 AM,48.0,37.9,68,30.18,10.0,Variable,4.6,-,N/A,,Clear,0,2012-10-06 14:53:00
11:53 AM,51.1,36.0,56,30.17,10.0,Variable,4.6,-,N/A,,Clear,0,2012-10-06 15:53:00
12:53 PM,54.0,36.0,51,30.16,10.0,Variable,4.6,-,N/A,,Clear,0,2012-10-06 16:53:00
1:53 PM,55.0,32.0,42,30.12,10.0,WNW,8.1,-,N/A,,Clear,300,2012-10-06 17:53:00
2:53 PM,57.0,30.9,37,30.10,10.0,Variable,4.6,-,N/A,,Clear,0,2012-10-06 18:53:00
3:53 PM,57.0,32.0,39,30.11,10.0,Variable,5.8,-,N/A,,Clear,0,2012-10-06 19:53:00
4:53 PM,57.0,32.0,39,30.10,10.0,WSW,6.9,-,N/A,,Clear,240,2012-10-06 20:53:00
5:53 PM,55.9,32.0,40,30.11,10.0,WNW,8.1,-,N/A,,Clear,290,2012-10-06 21:53:00
6:53 PM,53.1,34.0,48,30.12,10.0,Variable,4.6,-,N/A,,Clear,0,2012-10-06 22:53:00
7:53 PM,52.0,34.0,50,30.15,10.0,WNW,5.8,-,N/A,,Mostly Cloudy,300,2012-10-06 23:53:00
8:53 PM,51.1,34.0,52,30.15,10.0,NW,6.9,-,N/A,,Scattered Clouds,320,2012-10-07 00:53:00
9:53 PM,50.0,35.1,57,30.15,10.0,NNW,5.8,-,N/A,,Overcast,340,2012-10-07 01:53:00
10:53 PM,48.9,36.0,61,30.16,10.0,NNW,6.9,-,N/A,,Mostly Cloudy,340,2012-10-07 02:53:00